sensor_id;sensor_type;location;lat;lon;timestamp;temperature;humidity
11991;DHT22;6055;52.522;13.446;2023-04-01T00:01:03;10.00;99.90
11991;DHT22;6055;52.522;13.446;2023-04-01T00:03:29;10.00;99.90
11991;DHT22;6055;52.522;13.446;2023-04-01T00:05:56;10.00;99.90
11991;DHT22;6055;52.522;13.446;2023-04-01T00:08:23;10.00;99.90
11991;DHT22;6055;52.522;13.446;2023-04-01T00:10:49;10.00;99.90
11991;DHT22;6055;52.522;13.446;2023-04-01T00:13:15;10.00;99.90
11991;DHT22;6055;52.522;13.446;2023-04-01T00:15:41;10.00;99.90
11991;DHT22;6055;52.522;13.446;2023-04-01T00:18:07;10.00;99.90
11991;DHT22;6055;52.522;13.446;2023-04-01T00:20:32;10.00;99.90
11991;DHT22;6055;52.522;13.446;2023-04-01T00:22:58;10.00;99.90
11991;DHT22;6055;52.522;13.446;2023-04-01T00:25:24;10.00;99.90
11991;DHT22;6055;52.522;13.446;2023-04-01T00:27:49;10.10;99.90
11991;DHT22;6055;52.522;13.446;2023-04-01T00:30:16;10.10;99.90
11991;DHT22;6055;52.522;13.446;2023-04-01T00:32:41;10.10;99.90
11991;DHT22;6055;52.522;13.446;2023-04-01T00:35:07;10.10;99.90
11991;DHT22;6055;52.522;13.446;2023-04-01T00:37:35;10.00;99.90
11991;DHT22;6055;52.522;13.446;2023-04-01T00:40:03;10.00;99.90
11991;DHT22;6055;52.522;13.446;2023-04-01T00:42:29;10.00;99.90
11991;DHT22;6055;52.522;13.446;2023-04-01T00:44:55;10.00;99.90
11991;DHT22;6055;52.522;13.446;2023-04-01T00:47:22;10.10;99.90
11991;DHT22;6055;52.522;13.446;2023-04-01T00:49:51;10.10;99.90
11991;DHT22;6055;52.522;13.446;2023-04-01T00:52:20;10.00;99.90
11991;DHT22;6055;52.522;13.446;2023-04-01T00:54:50;10.00;99.90
11991;DHT22;6055;52.522;13.446;2023-04-01T00:57:34;10.00;99.90
11991;DHT22;6055;52.522;13.446;2023-04-01T01:00:03;10.00;99.90
11991;DHT22;6055;52.522;13.446;2023-04-01T01:02:30;10.00;99.90
11991;DHT22;6055;52.522;13.446;2023-04-01T01:04:56;10.00;99.90
11991;DHT22;6055;52.522;13.446;2023-04-01T01:07:36;10.00;99.90
11991;DHT22;6055;52.522;13.446;2023-04-01T01:10:19;10.00;99.90
11991;DHT22;6055;52.522;13.446;2023-04-01T01:12:57;10.00;99.90
11991;DHT22;6055;52.522;13.446;2023-04-01T01:15:49;10.00;99.90
11991;DHT22;6055;52.522;13.446;2023-04-01T01:24:17;10.00;99.90
11991;DHT22;6055;52.522;13.446;2023-04-01T01:27:13;10.00;99.90
11991;DHT22;6055;52.522;13.446;2023-04-01T01:35:28;10.10;99.90
11991;DHT22;6055;52.522;13.446;2023-04-01T01:37:59;10.10;99.90
11991;DHT22;6055;52.522;13.446;2023-04-01T01:40:26;10.10;99.90
11991;DHT22;6055;52.522;13.446;2023-04-01T01:42:56;10.10;99.90
11991;DHT22;6055;52.522;13.446;2023-04-01T01:45:25;10.10;99.90
11991;DHT22;6055;52.522;13.446;2023-04-01T01:47:51;10.10;99.90
11991;DHT22;6055;52.522;13.446;2023-04-01T01:50:18;10.10;99.90
11991;DHT22;6055;52.522;13.446;2023-04-01T01:52:44;10.10;99.90
11991;DHT22;6055;52.522;13.446;2023-04-01T01:55:31;10.10;99.90
11991;DHT22;6055;52.522;13.446;2023-04-01T01:58:06;10.10;99.90
11991;DHT22;6055;52.522;13.446;2023-04-01T02:00:34;10.00;99.90
11991;DHT22;6055;52.522;13.446;2023-04-01T02:03:00;10.10;99.90
11991;DHT22;6055;52.522;13.446;2023-04-01T02:05:27;10.10;99.90
11991;DHT22;6055;52.522;13.446;2023-04-01T02:08:06;10.10;99.90
11991;DHT22;6055;52.522;13.446;2023-04-01T02:10:36;10.10;99.90
11991;DHT22;6055;52.522;13.446;2023-04-01T02:13:08;10.10;99.90
11991;DHT22;6055;52.522;13.446;2023-04-01T02:15:37;10.10;99.90
11991;DHT22;6055;52.522;13.446;2023-04-01T02:18:06;10.00;99.90
11991;DHT22;6055;52.522;13.446;2023-04-01T02:20:32;10.10;99.90
11991;DHT22;6055;52.522;13.446;2023-04-01T02:22:59;10.00;99.90
11991;DHT22;6055;52.522;13.446;2023-04-01T02:25:27;10.00;99.90
11991;DHT22;6055;52.522;13.446;2023-04-01T02:27:55;10.00;99.90
11991;DHT22;6055;52.522;13.446;2023-04-01T02:30:21;10.00;99.90
11991;DHT22;6055;52.522;13.446;2023-04-01T02:32:48;9.90;99.90
11991;DHT22;6055;52.522;13.446;2023-04-01T02:35:16;10.00;99.90
11991;DHT22;6055;52.522;13.446;2023-04-01T02:37:43;10.00;99.90
11991;DHT22;6055;52.522;13.446;2023-04-01T02:40:11;10.00;99.90
11991;DHT22;6055;52.522;13.446;2023-04-01T02:42:36;10.00;99.90
11991;DHT22;6055;52.522;13.446;2023-04-01T02:45:03;9.90;99.90
11991;DHT22;6055;52.522;13.446;2023-04-01T02:47:29;9.90;99.90
11991;DHT22;6055;52.522;13.446;2023-04-01T02:49:54;9.90;99.90
11991;DHT22;6055;52.522;13.446;2023-04-01T02:52:24;10.00;99.90
11991;DHT22;6055;52.522;13.446;2023-04-01T02:54:50;10.00;99.90
11991;DHT22;6055;52.522;13.446;2023-04-01T02:57:15;10.00;99.90
11991;DHT22;6055;52.522;13.446;2023-04-01T02:59:40;10.00;99.90
11991;DHT22;6055;52.522;13.446;2023-04-01T03:02:06;10.00;99.90
11991;DHT22;6055;52.522;13.446;2023-04-01T03:04:32;10.00;99.90
11991;DHT22;6055;52.522;13.446;2023-04-01T03:06:57;10.00;99.90
11991;DHT22;6055;52.522;13.446;2023-04-01T03:09:23;10.00;99.90
11991;DHT22;6055;52.522;13.446;2023-04-01T03:11:48;10.00;99.90
11991;DHT22;6055;52.522;13.446;2023-04-01T03:14:14;10.00;99.90
11991;DHT22;6055;52.522;13.446;2023-04-01T03:16:39;10.00;99.90
11991;DHT22;6055;52.522;13.446;2023-04-01T03:19:05;10.00;99.90
11991;DHT22;6055;52.522;13.446;2023-04-01T03:21:30;10.00;99.90
11991;DHT22;6055;52.522;13.446;2023-04-01T03:23:56;10.00;99.90
11991;DHT22;6055;52.522;13.446;2023-04-01T03:26:21;10.00;99.90
11991;DHT22;6055;52.522;13.446;2023-04-01T03:28:47;10.00;99.90
11991;DHT22;6055;52.522;13.446;2023-04-01T03:31:13;10.00;99.90
11991;DHT22;6055;52.522;13.446;2023-04-01T03:33:39;10.00;99.90
11991;DHT22;6055;52.522;13.446;2023-04-01T03:36:05;10.00;99.90
11991;DHT22;6055;52.522;13.446;2023-04-01T03:38:32;10.00;99.90
11991;DHT22;6055;52.522;13.446;2023-04-01T03:40:58;10.10;99.90
11991;DHT22;6055;52.522;13.446;2023-04-01T03:43:23;10.00;99.90
11991;DHT22;6055;52.522;13.446;2023-04-01T03:45:50;10.00;99.90
11991;DHT22;6055;52.522;13.446;2023-04-01T03:48:17;10.00;99.90
11991;DHT22;6055;52.522;13.446;2023-04-01T03:50:43;10.00;99.90
11991;DHT22;6055;52.522;13.446;2023-04-01T03:53:09;10.00;99.90
11991;DHT22;6055;52.522;13.446;2023-04-01T03:55:38;10.00;99.90
11991;DHT22;6055;52.522;13.446;2023-04-01T03:58:05;10.00;99.90
11991;DHT22;6055;52.522;13.446;2023-04-01T04:00:30;10.00;99.90
11991;DHT22;6055;52.522;13.446;2023-04-01T04:02:57;10.00;99.90
11991;DHT22;6055;52.522;13.446;2023-04-01T04:05:23;10.00;99.90
11991;DHT22;6055;52.522;13.446;2023-04-01T04:07:50;10.10;99.90
11991;DHT22;6055;52.522;13.446;2023-04-01T04:10:16;10.10;99.90
11991;DHT22;6055;52.522;13.446;2023-04-01T04:12:41;10.10;99.90
11991;DHT22;6055;52.522;13.446;2023-04-01T04:15:08;10.10;99.90
11991;DHT22;6055;52.522;13.446;2023-04-01T04:17:34;10.10;99.90
11991;DHT22;6055;52.522;13.446;2023-04-01T04:19:59;10.10;99.90
11991;DHT22;6055;52.522;13.446;2023-04-01T04:22:25;10.00;99.90
11991;DHT22;6055;52.522;13.446;2023-04-01T04:24:51;10.00;99.90
11991;DHT22;6055;52.522;13.446;2023-04-01T04:27:16;10.10;99.90
11991;DHT22;6055;52.522;13.446;2023-04-01T04:29:42;10.00;99.90
11991;DHT22;6055;52.522;13.446;2023-04-01T04:32:08;10.10;99.90
11991;DHT22;6055;52.522;13.446;2023-04-01T04:34:33;10.10;99.90
11991;DHT22;6055;52.522;13.446;2023-04-01T04:36:59;10.10;99.90
11991;DHT22;6055;52.522;13.446;2023-04-01T04:39:24;10.10;99.90
11991;DHT22;6055;52.522;13.446;2023-04-01T04:41:50;10.10;99.90
11991;DHT22;6055;52.522;13.446;2023-04-01T04:44:15;10.10;99.90
11991;DHT22;6055;52.522;13.446;2023-04-01T04:46:41;10.10;99.90
11991;DHT22;6055;52.522;13.446;2023-04-01T04:49:06;10.10;99.90
11991;DHT22;6055;52.522;13.446;2023-04-01T04:51:32;10.10;99.90
11991;DHT22;6055;52.522;13.446;2023-04-01T04:54:02;10.00;99.90
11991;DHT22;6055;52.522;13.446;2023-04-01T04:56:28;10.10;99.90
11991;DHT22;6055;52.522;13.446;2023-04-01T04:58:54;10.10;99.90
11991;DHT22;6055;52.522;13.446;2023-04-01T05:01:19;10.10;99.90
11991;DHT22;6055;52.522;13.446;2023-04-01T05:03:45;10.10;99.90
11991;DHT22;6055;52.522;13.446;2023-04-01T05:06:13;10.10;99.90
11991;DHT22;6055;52.522;13.446;2023-04-01T05:08:39;10.10;99.90
11991;DHT22;6055;52.522;13.446;2023-04-01T05:11:09;10.20;99.90
11991;DHT22;6055;52.522;13.446;2023-04-01T05:13:36;10.20;99.90
11991;DHT22;6055;52.522;13.446;2023-04-01T05:16:01;10.10;99.90
11991;DHT22;6055;52.522;13.446;2023-04-01T05:18:27;10.20;99.90
11991;DHT22;6055;52.522;13.446;2023-04-01T05:20:54;10.20;99.90
11991;DHT22;6055;52.522;13.446;2023-04-01T05:23:21;10.10;99.90
11991;DHT22;6055;52.522;13.446;2023-04-01T05:25:48;10.20;99.90
11991;DHT22;6055;52.522;13.446;2023-04-01T05:28:14;10.20;99.90
11991;DHT22;6055;52.522;13.446;2023-04-01T05:30:41;10.20;99.90
11991;DHT22;6055;52.522;13.446;2023-04-01T05:33:07;10.20;99.90
11991;DHT22;6055;52.522;13.446;2023-04-01T05:35:33;10.20;99.90
11991;DHT22;6055;52.522;13.446;2023-04-01T05:37:58;10.20;99.90
11991;DHT22;6055;52.522;13.446;2023-04-01T05:40:24;10.20;99.90
11991;DHT22;6055;52.522;13.446;2023-04-01T05:42:50;10.20;99.90
11991;DHT22;6055;52.522;13.446;2023-04-01T05:45:15;10.20;99.90
11991;DHT22;6055;52.522;13.446;2023-04-01T05:47:41;10.20;99.90
11991;DHT22;6055;52.522;13.446;2023-04-01T05:50:08;10.20;99.90
11991;DHT22;6055;52.522;13.446;2023-04-01T05:52:34;10.20;99.90
11991;DHT22;6055;52.522;13.446;2023-04-01T05:54:59;10.20;99.90
11991;DHT22;6055;52.522;13.446;2023-04-01T05:57:25;10.20;99.90
11991;DHT22;6055;52.522;13.446;2023-04-01T05:59:51;10.20;99.90
11991;DHT22;6055;52.522;13.446;2023-04-01T06:02:17;10.30;99.90
11991;DHT22;6055;52.522;13.446;2023-04-01T06:04:43;10.30;99.90
11991;DHT22;6055;52.522;13.446;2023-04-01T06:07:16;10.30;99.90
11991;DHT22;6055;52.522;13.446;2023-04-01T06:09:43;10.30;99.90
11991;DHT22;6055;52.522;13.446;2023-04-01T06:12:22;10.40;99.90
11991;DHT22;6055;52.522;13.446;2023-04-01T06:15:11;10.40;99.90
11991;DHT22;6055;52.522;13.446;2023-04-01T06:18:00;10.40;99.90
11991;DHT22;6055;52.522;13.446;2023-04-01T06:20:39;10.30;99.90
11991;DHT22;6055;52.522;13.446;2023-04-01T06:26:19;10.40;99.90
11991;DHT22;6055;52.522;13.446;2023-04-01T06:29:15;10.40;99.90
11991;DHT22;6055;52.522;13.446;2023-04-01T06:32:13;10.40;99.90
11991;DHT22;6055;52.522;13.446;2023-04-01T06:34:58;10.30;99.90
11991;DHT22;6055;52.522;13.446;2023-04-01T06:43:23;10.30;99.90
11991;DHT22;6055;52.522;13.446;2023-04-01T06:46:05;10.30;99.90
11991;DHT22;6055;52.522;13.446;2023-04-01T06:48:54;10.30;99.90
11991;DHT22;6055;52.522;13.446;2023-04-01T06:51:37;10.40;99.90
11991;DHT22;6055;52.522;13.446;2023-04-01T06:54:28;10.40;99.90
11991;DHT22;6055;52.522;13.446;2023-04-01T06:57:01;10.40;99.90
11991;DHT22;6055;52.522;13.446;2023-04-01T06:59:32;10.40;99.90
11991;DHT22;6055;52.522;13.446;2023-04-01T07:04:51;10.40;99.90
11991;DHT22;6055;52.522;13.446;2023-04-01T07:07:35;10.50;99.90
11991;DHT22;6055;52.522;13.446;2023-04-01T07:10:09;10.50;99.90
11991;DHT22;6055;52.522;13.446;2023-04-01T07:12:43;10.50;99.90
11991;DHT22;6055;52.522;13.446;2023-04-01T07:15:19;10.50;99.90
11991;DHT22;6055;52.522;13.446;2023-04-01T07:17:48;10.60;99.90
11991;DHT22;6055;52.522;13.446;2023-04-01T07:20:23;10.60;99.90
11991;DHT22;6055;52.522;13.446;2023-04-01T07:22:54;10.60;99.90
11991;DHT22;6055;52.522;13.446;2023-04-01T07:25:45;10.60;99.90
11991;DHT22;6055;52.522;13.446;2023-04-01T07:28:15;10.60;99.90
11991;DHT22;6055;52.522;13.446;2023-04-01T07:30:58;10.70;99.90
11991;DHT22;6055;52.522;13.446;2023-04-01T07:33:43;10.70;99.90
11991;DHT22;6055;52.522;13.446;2023-04-01T07:36:19;10.70;99.90
11991;DHT22;6055;52.522;13.446;2023-04-01T07:47:51;10.80;99.90
11991;DHT22;6055;52.522;13.446;2023-04-01T07:50:26;10.80;99.90
11991;DHT22;6055;52.522;13.446;2023-04-01T07:53:16;10.80;99.90
11991;DHT22;6055;52.522;13.446;2023-04-01T07:55:54;10.80;99.90
11991;DHT22;6055;52.522;13.446;2023-04-01T07:58:30;10.80;99.90
11991;DHT22;6055;52.522;13.446;2023-04-01T08:01:25;10.80;99.90
11991;DHT22;6055;52.522;13.446;2023-04-01T08:04:22;10.80;99.90
11991;DHT22;6055;52.522;13.446;2023-04-01T08:07:05;10.80;99.90
11991;DHT22;6055;52.522;13.446;2023-04-01T08:12:26;10.70;99.90
11991;DHT22;6055;52.522;13.446;2023-04-01T08:15:16;10.70;99.90
11991;DHT22;6055;52.522;13.446;2023-04-01T08:21:18;10.70;99.90
11991;DHT22;6055;52.522;13.446;2023-04-01T08:23:51;10.70;99.90
11991;DHT22;6055;52.522;13.446;2023-04-01T08:26:23;10.70;99.90
11991;DHT22;6055;52.522;13.446;2023-04-01T08:29:18;10.70;99.90
11991;DHT22;6055;52.522;13.446;2023-04-01T08:32:12;10.60;99.90
11991;DHT22;6055;52.522;13.446;2023-04-01T08:34:51;10.60;99.90
11991;DHT22;6055;52.522;13.446;2023-04-01T08:37:28;10.70;99.90
11991;DHT22;6055;52.522;13.446;2023-04-01T08:40:25;10.70;99.90
11991;DHT22;6055;52.522;13.446;2023-04-01T08:43:06;10.80;99.90
11991;DHT22;6055;52.522;13.446;2023-04-01T08:45:56;10.80;99.90
11991;DHT22;6055;52.522;13.446;2023-04-01T08:49:00;10.80;99.90
11991;DHT22;6055;52.522;13.446;2023-04-01T08:54:56;10.80;99.90
11991;DHT22;6055;52.522;13.446;2023-04-01T09:00:38;10.90;99.90
11991;DHT22;6055;52.522;13.446;2023-04-01T09:03:36;10.90;99.90
11991;DHT22;6055;52.522;13.446;2023-04-01T09:09:38;11.00;99.90
11991;DHT22;6055;52.522;13.446;2023-04-01T09:15:34;11.10;99.90
11991;DHT22;6055;52.522;13.446;2023-04-01T09:21:12;11.30;99.90
11991;DHT22;6055;52.522;13.446;2023-04-01T09:24:11;11.40;99.90
11991;DHT22;6055;52.522;13.446;2023-04-01T09:26:56;11.50;99.90
11991;DHT22;6055;52.522;13.446;2023-04-01T09:29:40;11.60;99.90
11991;DHT22;6055;52.522;13.446;2023-04-01T09:35:30;11.60;99.90
11991;DHT22;6055;52.522;13.446;2023-04-01T09:38:21;11.50;99.90
11991;DHT22;6055;52.522;13.446;2023-04-01T09:41:02;11.50;99.90
11991;DHT22;6055;52.522;13.446;2023-04-01T09:44:08;11.40;99.90
11991;DHT22;6055;52.522;13.446;2023-04-01T09:47:00;11.40;99.90
11991;DHT22;6055;52.522;13.446;2023-04-01T09:55:12;11.30;99.90
11991;DHT22;6055;52.522;13.446;2023-04-01T09:57:49;11.30;99.90
11991;DHT22;6055;52.522;13.446;2023-04-01T10:00:39;11.20;99.90
11991;DHT22;6055;52.522;13.446;2023-04-01T10:06:38;11.10;99.90
11991;DHT22;6055;52.522;13.446;2023-04-01T10:09:21;11.00;99.90
11991;DHT22;6055;52.522;13.446;2023-04-01T10:12:20;10.90;99.90
11991;DHT22;6055;52.522;13.446;2023-04-01T10:15:29;10.80;99.90
11991;DHT22;6055;52.522;13.446;2023-04-01T10:18:19;10.70;99.90
11991;DHT22;6055;52.522;13.446;2023-04-01T10:20:59;10.70;99.90
11991;DHT22;6055;52.522;13.446;2023-04-01T10:23:51;10.80;99.90
11991;DHT22;6055;52.522;13.446;2023-04-01T10:26:41;10.90;99.90
11991;DHT22;6055;52.522;13.446;2023-04-01T10:32:11;10.80;99.90
11991;DHT22;6055;52.522;13.446;2023-04-01T10:35:10;10.80;99.90
11991;DHT22;6055;52.522;13.446;2023-04-01T10:43:42;10.80;99.90
11991;DHT22;6055;52.522;13.446;2023-04-01T10:51:59;10.70;99.90
11991;DHT22;6055;52.522;13.446;2023-04-01T11:01:15;10.80;99.90
11991;DHT22;6055;52.522;13.446;2023-04-01T11:13:18;10.90;99.90
11991;DHT22;6055;52.522;13.446;2023-04-01T11:18:59;10.90;99.90
11991;DHT22;6055;52.522;13.446;2023-04-01T11:27:44;11.00;99.90
11991;DHT22;6055;52.522;13.446;2023-04-01T11:30:41;11.10;99.90
11991;DHT22;6055;52.522;13.446;2023-04-01T11:34:23;11.10;99.90
11991;DHT22;6055;52.522;13.446;2023-04-01T11:39:12;10.90;99.90
11991;DHT22;6055;52.522;13.446;2023-04-01T11:42:06;10.80;99.90
11991;DHT22;6055;52.522;13.446;2023-04-01T11:44:35;10.80;99.90
11991;DHT22;6055;52.522;13.446;2023-04-01T11:50:30;10.80;99.90
11991;DHT22;6055;52.522;13.446;2023-04-01T11:53:17;10.80;99.90
11991;DHT22;6055;52.522;13.446;2023-04-01T11:56:02;10.70;99.90
11991;DHT22;6055;52.522;13.446;2023-04-01T12:10:05;10.70;99.90
11991;DHT22;6055;52.522;13.446;2023-04-01T12:12:59;10.70;99.90
11991;DHT22;6055;52.522;13.446;2023-04-01T12:18:25;10.60;99.90
11991;DHT22;6055;52.522;13.446;2023-04-01T12:21:09;10.60;99.90
11991;DHT22;6055;52.522;13.446;2023-04-01T12:26:59;10.60;99.90
11991;DHT22;6055;52.522;13.446;2023-04-01T12:30:01;10.60;99.90
11991;DHT22;6055;52.522;13.446;2023-04-01T12:35:39;10.40;99.90
11991;DHT22;6055;52.522;13.446;2023-04-01T12:39:13;10.30;99.90
11991;DHT22;6055;52.522;13.446;2023-04-01T12:41:54;10.30;99.90
11991;DHT22;6055;52.522;13.446;2023-04-01T12:47:16;10.20;99.90
11991;DHT22;6055;52.522;13.446;2023-04-01T12:53:31;10.20;99.90
11991;DHT22;6055;52.522;13.446;2023-04-01T12:55:59;10.30;99.90
11991;DHT22;6055;52.522;13.446;2023-04-01T12:59:14;10.40;99.90
11991;DHT22;6055;52.522;13.446;2023-04-01T13:02:13;10.40;99.90
11991;DHT22;6055;52.522;13.446;2023-04-01T13:07:58;10.50;99.90
11991;DHT22;6055;52.522;13.446;2023-04-01T13:10:39;10.40;99.90
11991;DHT22;6055;52.522;13.446;2023-04-01T13:13:39;10.20;99.90
11991;DHT22;6055;52.522;13.446;2023-04-01T13:16:26;10.00;99.90
11991;DHT22;6055;52.522;13.446;2023-04-01T13:19:00;9.90;99.90
11991;DHT22;6055;52.522;13.446;2023-04-01T13:27:50;9.90;99.90
11991;DHT22;6055;52.522;13.446;2023-04-01T13:30:47;9.80;99.90
11991;DHT22;6055;52.522;13.446;2023-04-01T13:33:39;9.70;99.90
11991;DHT22;6055;52.522;13.446;2023-04-01T13:36:28;9.80;99.90
11991;DHT22;6055;52.522;13.446;2023-04-01T13:44:49;9.70;99.90
11991;DHT22;6055;52.522;13.446;2023-04-01T13:50:27;9.80;99.90
11991;DHT22;6055;52.522;13.446;2023-04-01T13:55:45;9.70;99.90
11991;DHT22;6055;52.522;13.446;2023-04-01T13:58:49;9.70;99.90
11991;DHT22;6055;52.522;13.446;2023-04-01T14:01:42;9.70;99.90
11991;DHT22;6055;52.522;13.446;2023-04-01T14:10:08;9.50;99.90
11991;DHT22;6055;52.522;13.446;2023-04-01T14:12:39;9.50;99.90
11991;DHT22;6055;52.522;13.446;2023-04-01T14:23:46;9.30;99.90
11991;DHT22;6055;52.522;13.446;2023-04-01T14:41:06;9.30;99.90
11991;DHT22;6055;52.522;13.446;2023-04-01T14:47:07;9.20;99.90
11991;DHT22;6055;52.522;13.446;2023-04-01T14:49:42;9.10;99.90
11991;DHT22;6055;52.522;13.446;2023-04-01T14:52:28;9.10;99.90
11991;DHT22;6055;52.522;13.446;2023-04-01T14:54:57;9.10;99.90
11991;DHT22;6055;52.522;13.446;2023-04-01T14:57:24;9.20;99.90
11991;DHT22;6055;52.522;13.446;2023-04-01T15:00:00;9.10;99.90
11991;DHT22;6055;52.522;13.446;2023-04-01T15:08:34;9.20;99.90
11991;DHT22;6055;52.522;13.446;2023-04-01T15:11:24;9.20;99.90
11991;DHT22;6055;52.522;13.446;2023-04-01T15:16:41;9.20;99.90
11991;DHT22;6055;52.522;13.446;2023-04-01T15:19:31;9.20;99.90
11991;DHT22;6055;52.522;13.446;2023-04-01T15:22:38;9.20;99.90
11991;DHT22;6055;52.522;13.446;2023-04-01T15:25:51;9.20;99.90
11991;DHT22;6055;52.522;13.446;2023-04-01T15:28:38;9.10;99.90
11991;DHT22;6055;52.522;13.446;2023-04-01T15:39:14;8.90;99.90
11991;DHT22;6055;52.522;13.446;2023-04-01T15:44:58;8.80;99.90
11991;DHT22;6055;52.522;13.446;2023-04-01T15:47:40;8.90;99.90
11991;DHT22;6055;52.522;13.446;2023-04-01T15:50:28;8.90;99.90
11991;DHT22;6055;52.522;13.446;2023-04-01T15:53:18;8.80;99.90
11991;DHT22;6055;52.522;13.446;2023-04-01T16:01:38;8.70;99.90
11991;DHT22;6055;52.522;13.446;2023-04-01T16:07:43;8.60;99.90
11991;DHT22;6055;52.522;13.446;2023-04-01T16:14:07;8.50;99.90
11991;DHT22;6055;52.522;13.446;2023-04-01T16:16:38;8.40;99.90
11991;DHT22;6055;52.522;13.446;2023-04-01T16:24:43;8.30;99.90
11991;DHT22;6055;52.522;13.446;2023-04-01T16:30:32;8.30;99.90
11991;DHT22;6055;52.522;13.446;2023-04-01T16:33:04;8.30;99.90
11991;DHT22;6055;52.522;13.446;2023-04-01T16:35:54;8.10;99.90
11991;DHT22;6055;52.522;13.446;2023-04-01T16:41:04;8.00;99.90
11991;DHT22;6055;52.522;13.446;2023-04-01T16:43:38;8.00;99.90
11991;DHT22;6055;52.522;13.446;2023-04-01T17:02:47;8.00;99.90
11991;DHT22;6055;52.522;13.446;2023-04-01T17:05:17;8.00;99.90
11991;DHT22;6055;52.522;13.446;2023-04-01T17:07:59;8.00;99.90
11991;DHT22;6055;52.522;13.446;2023-04-01T17:10:51;7.80;99.90
11991;DHT22;6055;52.522;13.446;2023-04-01T17:16:24;7.70;99.90
11991;DHT22;6055;52.522;13.446;2023-04-01T17:21:57;7.50;99.90
11991;DHT22;6055;52.522;13.446;2023-04-01T17:27:48;7.40;99.90
11991;DHT22;6055;52.522;13.446;2023-04-01T17:33:12;7.40;99.90
11991;DHT22;6055;52.522;13.446;2023-04-01T17:35:59;7.40;99.90
11991;DHT22;6055;52.522;13.446;2023-04-01T17:41:25;7.30;99.90
11991;DHT22;6055;52.522;13.446;2023-04-01T17:44:16;7.20;99.90
11991;DHT22;6055;52.522;13.446;2023-04-01T17:52:52;7.20;99.90
11991;DHT22;6055;52.522;13.446;2023-04-01T17:58:15;7.00;99.90
11991;DHT22;6055;52.522;13.446;2023-04-01T18:03:52;6.90;99.90
11991;DHT22;6055;52.522;13.446;2023-04-01T18:06:29;6.90;99.90
11991;DHT22;6055;52.522;13.446;2023-04-01T18:09:03;6.90;99.90
11991;DHT22;6055;52.522;13.446;2023-04-01T18:11:50;6.90;99.90
11991;DHT22;6055;52.522;13.446;2023-04-01T18:15:28;6.90;99.90
11991;DHT22;6055;52.522;13.446;2023-04-01T18:18:10;6.90;99.90
11991;DHT22;6055;52.522;13.446;2023-04-01T18:23:44;6.90;99.90
11991;DHT22;6055;52.522;13.446;2023-04-01T18:26:20;6.90;99.90
11991;DHT22;6055;52.522;13.446;2023-04-01T18:28:57;6.80;99.90
11991;DHT22;6055;52.522;13.446;2023-04-01T18:31:35;6.80;99.90
11991;DHT22;6055;52.522;13.446;2023-04-01T18:36:56;6.90;99.90
11991;DHT22;6055;52.522;13.446;2023-04-01T18:39:46;6.80;99.90
11991;DHT22;6055;52.522;13.446;2023-04-01T18:45:34;6.60;99.90
11991;DHT22;6055;52.522;13.446;2023-04-01T18:51:02;6.60;99.90
11991;DHT22;6055;52.522;13.446;2023-04-01T18:53:42;6.60;99.90
11991;DHT22;6055;52.522;13.446;2023-04-01T18:59:12;6.60;99.90
11991;DHT22;6055;52.522;13.446;2023-04-01T19:02:02;6.60;99.90
11991;DHT22;6055;52.522;13.446;2023-04-01T19:04:37;6.60;99.90
11991;DHT22;6055;52.522;13.446;2023-04-01T19:10:19;6.60;99.90
11991;DHT22;6055;52.522;13.446;2023-04-01T19:16:07;6.50;99.90
11991;DHT22;6055;52.522;13.446;2023-04-01T19:21:47;6.50;99.90
11991;DHT22;6055;52.522;13.446;2023-04-01T19:27:43;6.50;99.90
11991;DHT22;6055;52.522;13.446;2023-04-01T19:30:31;6.50;99.90
11991;DHT22;6055;52.522;13.446;2023-04-01T19:36:03;6.40;99.90
11991;DHT22;6055;52.522;13.446;2023-04-01T19:38:37;6.50;99.90
11991;DHT22;6055;52.522;13.446;2023-04-01T19:47:23;6.30;99.90
11991;DHT22;6055;52.522;13.446;2023-04-01T19:52:47;6.30;99.90
11991;DHT22;6055;52.522;13.446;2023-04-01T19:55:41;6.20;99.90
11991;DHT22;6055;52.522;13.446;2023-04-01T20:00:56;6.10;99.90
11991;DHT22;6055;52.522;13.446;2023-04-01T20:03:39;6.10;99.90
11991;DHT22;6055;52.522;13.446;2023-04-01T20:06:36;6.10;99.90
11991;DHT22;6055;52.522;13.446;2023-04-01T20:11:58;6.10;99.90
11991;DHT22;6055;52.522;13.446;2023-04-01T20:14:46;6.10;99.90
11991;DHT22;6055;52.522;13.446;2023-04-01T20:17:40;6.00;99.90
11991;DHT22;6055;52.522;13.446;2023-04-01T20:25:33;5.90;99.90
11991;DHT22;6055;52.522;13.446;2023-04-01T20:30:58;5.90;99.90
11991;DHT22;6055;52.522;13.446;2023-04-01T20:36:34;5.90;99.90
11991;DHT22;6055;52.522;13.446;2023-04-01T20:39:09;5.90;99.90
11991;DHT22;6055;52.522;13.446;2023-04-01T20:42:20;5.90;99.90
11991;DHT22;6055;52.522;13.446;2023-04-01T20:45:16;5.90;99.90
11991;DHT22;6055;52.522;13.446;2023-04-01T20:47:55;5.90;99.90
11991;DHT22;6055;52.522;13.446;2023-04-01T20:53:09;5.80;99.90
11991;DHT22;6055;52.522;13.446;2023-04-01T21:08:10;5.80;99.90
11991;DHT22;6055;52.522;13.446;2023-04-01T21:11:04;5.70;99.90
11991;DHT22;6055;52.522;13.446;2023-04-01T21:13:47;5.60;99.90
11991;DHT22;6055;52.522;13.446;2023-04-01T21:18:59;5.60;99.90
11991;DHT22;6055;52.522;13.446;2023-04-01T21:21:53;5.60;99.90
11991;DHT22;6055;52.522;13.446;2023-04-01T21:24:51;5.50;99.90
11991;DHT22;6055;52.522;13.446;2023-04-01T21:30:49;5.60;99.90
11991;DHT22;6055;52.522;13.446;2023-04-01T21:33:42;5.70;99.90
11991;DHT22;6055;52.522;13.446;2023-04-01T21:36:39;5.70;99.90
11991;DHT22;6055;52.522;13.446;2023-04-01T21:42:23;5.60;99.90
11991;DHT22;6055;52.522;13.446;2023-04-01T21:47:58;5.70;99.90
11991;DHT22;6055;52.522;13.446;2023-04-01T21:50:39;5.70;99.90
11991;DHT22;6055;52.522;13.446;2023-04-01T22:07:32;5.30;99.90
11991;DHT22;6055;52.522;13.446;2023-04-01T22:13:11;5.20;99.90
11991;DHT22;6055;52.522;13.446;2023-04-01T22:16:08;5.20;99.90
11991;DHT22;6055;52.522;13.446;2023-04-01T22:18:43;5.30;99.90
11991;DHT22;6055;52.522;13.446;2023-04-01T22:21:29;5.20;99.90
11991;DHT22;6055;52.522;13.446;2023-04-01T22:26:37;5.10;99.90
11991;DHT22;6055;52.522;13.446;2023-04-01T22:29:28;5.20;99.90
11991;DHT22;6055;52.522;13.446;2023-04-01T22:32:11;5.20;99.90
11991;DHT22;6055;52.522;13.446;2023-04-01T22:34:49;5.20;99.90
11991;DHT22;6055;52.522;13.446;2023-04-01T22:37:37;5.10;99.90
11991;DHT22;6055;52.522;13.446;2023-04-01T22:40:19;5.10;99.90
11991;DHT22;6055;52.522;13.446;2023-04-01T22:43:09;5.10;99.90
11991;DHT22;6055;52.522;13.446;2023-04-01T22:45:56;5.10;99.90
11991;DHT22;6055;52.522;13.446;2023-04-01T22:48:47;5.10;99.90
11991;DHT22;6055;52.522;13.446;2023-04-01T22:51:21;5.10;99.90
11991;DHT22;6055;52.522;13.446;2023-04-01T22:56:31;5.10;99.90
11991;DHT22;6055;52.522;13.446;2023-04-01T23:02:30;5.10;99.90
11991;DHT22;6055;52.522;13.446;2023-04-01T23:05:00;5.20;99.90